Terminal Aerodrome Forecast
Issued by NWS

Home | Current Version | Previous Version | Text Only | Print | Product List | Glossary On
Versions: 1 2 3 4 5 6 7 8 9 10 11 12 13 14 15 16 17 18 19 20 21 22 23
631
FTUS44 KOUN 291123
TAFGAG
TAF
KGAG 291123Z 2912/3012 03022G32KT 3SM SHRA BR OVC015
      TEMPO 2912/2915 2SM TSRA BR OVC010CB
     FM291500 35016G24KT 5SM -SHRA BR OVC010
     FM292100 34018G25KT 5SM -DZ BR OVC007=

USA.gov is the U.S. government's official web portal to all federal, state and local government web resources and services.